Time;durP1;ratioP1;P1;durP2;ratioP2;P2;SDS_P1;SDS_P2;PMS_P1;PMS_P2;Temp;Humidity;BMP_temperature;BMP_pressure;BME280_temperature;BME280_humidity;BME280_pressure;Samples;Min_cycle;Max_cycle;Signal;HPM_P1;HPM_P2
2023/10/07 00:00:32;;;;;;;14.77;7.03;;;;;;;12.40;100.00;102176.34;6186565;23;20494;-81
2023/10/07 00:03:03;;;;;;;12.10;6.47;;;;;;;12.38;100.00;102176.41;6215620;23;20004;-82
2023/10/07 00:05:32;;;;;;;11.55;6.05;;;;;;;12.04;100.00;102121.06;6215433;23;20007;-80
2023/10/07 00:08:03;;;;;;;14.43;6.72;;;;;;;12.33;100.00;102155.91;6215421;23;20027;-80
2023/10/07 00:10:30;;;;;;;14.45;6.53;;;;;;;12.29;100.00;102151.81;6215322;23;20012;-79
2023/10/07 00:13:00;;;;;;;12.60;6.82;;;;;;;12.32;100.00;102159.41;6215147;23;20011;-75
2023/10/07 00:15:29;;;;;;;11.98;6.45;;;;;;;12.32;100.00;102156.84;6214999;23;20063;-81
2023/10/07 00:17:57;;;;;;;15.02;7.10;;;;;;;12.32;100.00;102149.06;6215482;23;20375;-80
2023/10/07 00:20:23;;;;;;;11.35;6.78;;;;;;;12.18;100.00;102104.84;6215135;23;20007;-79
2023/10/07 00:22:54;;;;;;;10.70;6.40;;;;;;;12.35;100.00;102133.34;6215614;23;20031;-82
2023/10/07 00:25:20;;;;;;;14.18;7.30;;;;;;;12.40;100.00;102143.50;6215367;23;20008;-81
2023/10/07 00:27:48;;;;;;;15.35;7.45;;;;;;;12.44;100.00;102145.03;6214921;23;20010;-81
2023/10/07 00:30:16;;;;;;;12.45;7.00;;;;;;;12.44;100.00;102144.19;6215374;23;20049;-82
2023/10/07 00:32:45;;;;;;;12.32;7.00;;;;;;;12.43;100.00;102132.97;6214949;23;20084;-76
2023/10/07 00:35:11;;;;;;;13.32;7.43;;;;;;;12.43;100.00;102135.56;6215265;23;20015;-77
2023/10/07 00:37:46;;;;;;;13.75;7.38;;;;;;;12.30;100.00;102124.16;6214922;23;20015;-79
2023/10/07 00:40:24;;;;;;;13.57;7.45;;;;;;;12.50;100.00;102169.81;6214892;23;20820;-75
2023/10/07 00:42:50;;;;;;;11.23;7.10;;;;;;;12.46;100.00;102161.31;6214873;23;20011;-76
2023/10/07 00:45:16;;;;;;;13.25;7.47;;;;;;;12.44;100.00;102167.50;6214970;23;20460;-75
2023/10/07 00:47:49;;;;;;;15.07;8.00;;;;;;;12.33;100.00;102148.16;6214920;23;20013;-79
2023/10/07 00:50:16;;;;;;;16.33;8.20;;;;;;;12.34;100.00;102155.00;6214908;23;20023;-77
2023/10/07 00:55:29;;;;;;;16.02;7.75;;;;;;;12.31;100.00;102149.97;6215104;23;20020;-76
2023/10/07 00:58:19;;;;;;;13.05;8.32;;;;;;;12.32;100.00;102143.03;6214745;23;20358;-75
2023/10/07 01:00:49;;;;;;;17.25;8.35;;;;;;;12.41;100.00;102149.53;6213069;23;20374;-75
2023/10/07 01:03:23;;;;;;;14.15;8.45;;;;;;;12.40;100.00;102142.66;6214601;23;20334;-78
2023/10/07 01:06:07;;;;;;;18.15;9.60;;;;;;;12.27;100.00;102107.00;6215341;23;20026;-78
2023/10/07 01:08:35;;;;;;;12.88;9.40;;;;;;;12.20;100.00;102104.81;6213113;23;20079;-77
2023/10/07 01:11:39;;;;;;;16.70;9.52;;;;;;;12.39;100.00;102128.00;6214537;23;20043;-76
2023/10/07 01:13:56;;;;;;;15.27;10.05;;;;;;;12.38;100.00;102116.81;6208779;23;20028;-77
2023/10/07 01:19:05;;;;;;;15.57;9.85;;;;;;;12.40;100.00;102127.13;6225117;23;20009;-76
2023/10/07 01:21:32;;;;;;;19.27;10.25;;;;;;;12.43;100.00;102121.78;6187714;23;20079;-77
2023/10/07 01:24:05;;;;;;;18.13;11.10;;;;;;;12.47;100.00;102141.44;6216728;23;20007;-77
2023/10/07 01:26:33;;;;;;;18.10;10.50;;;;;;;12.48;100.00;102154.31;6216638;23;20001;-79
2023/10/07 01:29:11;;;;;;;17.20;11.38;;;;;;;12.51;100.00;102151.59;6216820;23;20000;-77
2023/10/07 01:31:40;;;;;;;15.73;11.25;;;;;;;12.51;100.00;102140.38;6216662;23;20011;-76
2023/10/07 01:34:08;;;;;;;16.73;11.35;;;;;;;12.50;100.00;102149.06;6216700;23;20086;-76
2023/10/07 01:36:33;;;;;;;18.52;11.25;;;;;;;12.21;100.00;102115.09;6214272;23;20372;-74
2023/10/07 01:39:01;;;;;;;19.23;11.60;;;;;;;12.41;100.00;102140.00;6216269;23;20051;-78
2023/10/07 01:41:30;;;;;;;18.10;11.95;;;;;;;12.46;100.00;102148.38;6216440;23;20082;-79
2023/10/07 01:44:04;;;;;;;20.38;11.80;;;;;;;12.42;100.00;102130.47;6216508;23;20004;-78
2023/10/07 01:46:32;;;;;;;20.77;11.65;;;;;;;12.21;100.00;102094.38;6216468;23;20008;-78
2023/10/07 01:49:05;;;;;;;20.27;12.90;;;;;;;12.45;100.00;102128.56;6216540;23;20004;-77
2023/10/07 01:51:31;;;;;;;21.23;13.07;;;;;;;12.45;100.00;102114.75;6216623;23;20455;-76
2023/10/07 01:54:00;;;;;;;20.75;13.60;;;;;;;12.46;100.00;102113.84;6216214;23;20028;-77
2023/10/07 01:56:29;;;;;;;20.75;12.98;;;;;;;12.49;100.00;102111.13;6216361;23;20084;-79
2023/10/07 01:58:57;;;;;;;22.63;13.02;;;;;;;12.48;100.00;102109.41;6188717;23;20012;-76
2023/10/07 02:01:28;;;;;;;21.10;13.00;;;;;;;12.50;100.00;102102.44;6216380;23;20043;-77
2023/10/07 02:03:57;;;;;;;24.08;13.68;;;;;;;12.50;100.00;102094.66;6216397;23;20418;-76
2023/10/07 02:06:24;;;;;;;23.02;13.88;;;;;;;12.64;100.00;102107.75;6216677;23;20001;-78
2023/10/07 02:08:50;;;;;;;19.85;12.70;;;;;;;12.67;100.00;102123.13;6190026;23;20004;-79
2023/10/07 02:11:18;;;;;;;22.17;13.93;;;;;;;12.59;100.00;102117.50;6216389;23;20001;-77
2023/10/07 02:13:45;;;;;;;22.88;13.23;;;;;;;12.70;100.00;102120.41;6216551;23;20008;-76
2023/10/07 02:16:11;;;;;;;22.92;13.90;;;;;;;12.61;100.00;102090.59;6216393;23;20418;-78
2023/10/07 02:18:36;;;;;;;20.60;13.65;;;;;;;12.76;100.00;102119.22;6216300;23;20084;-77
2023/10/07 02:21:08;;;;;;;21.45;13.65;;;;;;;12.79;100.00;102122.50;6215877;23;20087;-76
2023/10/07 02:23:40;;;;;;;21.67;14.45;;;;;;;12.80;100.00;102125.94;6216403;23;20008;-76
2023/10/07 02:26:32;;;;;;;23.52;14.15;;;;;;;12.74;100.00;102106.34;6215950;23;20012;-76
2023/10/07 02:29:06;;;;;;;24.08;14.60;;;;;;;12.83;100.00;102112.81;6215544;23;20009;-78
2023/10/07 02:31:41;;;;;;;23.23;14.70;;;;;;;12.82;100.00;102117.16;6216356;23;20419;-76
2023/10/07 02:34:08;;;;;;;20.65;13.90;;;;;;;12.84;100.00;102122.25;6215936;23;20111;-80
2023/10/07 02:36:36;;;;;;;21.27;14.82;;;;;;;12.86;100.00;102123.84;6216283;23;20008;-77
2023/10/07 02:39:26;;;;;;;22.23;14.45;;;;;;;12.87;100.00;102133.31;6216276;23;20015;-77
2023/10/07 02:41:53;;;;;;;24.23;16.52;;;;;;;12.92;100.00;102136.50;6215707;23;20494;-83
2023/10/07 02:44:26;;;;;;;24.25;16.45;;;;;;;12.95;100.00;102134.66;6217288;23;20032;-84
2023/10/07 02:46:54;;;;;;;25.27;16.10;;;;;;;12.97;100.00;102135.41;6218641;23;20008;-84
2023/10/07 02:49:25;;;;;;;24.63;17.35;;;;;;;12.99;100.00;102131.00;6219240;23;20350;-82
2023/10/07 02:51:56;;;;;;;22.73;15.93;;;;;;;12.92;100.00;102115.75;6219887;23;20114;-81
2023/10/07 02:54:22;;;;;;;29.45;17.02;;;;;;;12.91;100.00;102101.13;6223214;23;20001;-83
2023/10/07 02:56:56;;;;;;;25.52;16.60;;;;;;;12.95;100.00;102106.16;6216556;23;20082;-83
2023/10/07 02:59:29;;;;;;;24.27;17.88;;;;;;;12.92;100.00;102100.22;6216531;23;19996;-84
2023/10/07 03:04:44;;;;;;;29.63;18.17;;;;;;;13.08;100.00;102126.19;6216284;23;20014;-82
2023/10/07 03:07:13;;;;;;;23.75;18.40;;;;;;;13.10;100.00;102124.34;6215843;23;20378;-82
2023/10/07 03:09:52;;;;;;;27.13;18.70;;;;;;;13.08;100.00;102120.16;6215919;23;20001;-82
2023/10/07 03:12:27;;;;;;;30.73;19.38;;;;;;;13.10;100.00;102110.53;6215778;23;20111;-81
2023/10/07 03:14:55;;;;;;;27.33;19.48;;;;;;;13.07;100.00;102103.72;6215746;23;20012;-80
2023/10/07 03:17:21;;;;;;;27.55;18.98;;;;;;;13.07;100.00;102102.91;6215808;23;20005;-82
2023/10/07 03:19:56;;;;;;;29.25;21.00;;;;;;;13.11;100.00;102117.41;6189287;23;20024;-82
2023/10/07 03:22:31;;;;;;;28.50;20.48;;;;;;;13.20;100.00;102122.13;6216089;23;20060;-79
2023/10/07 03:25:03;;;;;;;28.77;20.88;;;;;;;13.19;100.00;102118.69;6215757;23;20012;-83
2023/10/07 03:27:29;;;;;;;29.85;21.58;;;;;;;13.14;100.00;102099.06;6215556;23;20074;-83
2023/10/07 03:30:12;;;;;;;33.17;22.42;;;;;;;13.24;100.00;102112.41;6213022;23;20051;-82
2023/10/07 03:32:57;;;;;;;28.63;21.05;;;;;;;13.22;100.00;102112.50;6214636;23;20004;-83
2023/10/07 03:36:07;;;;;;;31.77;21.40;;;;;;;13.27;100.00;102113.06;6216150;23;20008;-84
2023/10/07 03:38:27;;;;;;;28.67;21.77;;;;;;;13.31;100.00;102113.78;6215728;23;20012;-80
2023/10/07 03:40:56;;;;;;;32.38;23.05;;;;;;;13.31;100.00;102122.38;6215775;23;20008;-77
2023/10/07 03:43:25;;;;;;;33.28;23.10;;;;;;;13.28;100.00;102107.00;6215640;23;20063;-82
2023/10/07 03:45:51;;;;;;;30.65;22.10;;;;;;;13.36;100.00;102112.59;6214856;23;20009;-77
2023/10/07 03:48:31;;;;;;;33.00;22.90;;;;;;;13.30;100.00;102083.56;6215371;23;20076;-83
2023/10/07 03:51:08;;;;;;;33.28;23.58;;;;;;;13.41;100.00;102100.22;6215519;23;20082;-80
2023/10/07 03:53:47;;;;;;;33.17;24.70;;;;;;;13.36;100.00;102088.41;6215535;23;20008;-83
2023/10/07 03:56:14;;;;;;;32.47;23.30;;;;;;;13.45;100.00;102099.09;6215368;23;20051;-83
2023/10/07 03:58:43;;;;;;;35.60;23.13;;;;;;;13.34;100.00;102074.69;6215189;23;20411;-77
2023/10/07 04:01:11;;;;;;;36.33;25.02;;;;;;;13.46;100.00;102095.59;6214885;23;20345;-78
2023/10/07 04:03:40;;;;;;;34.72;24.02;;;;;;;13.38;100.00;102071.00;6215089;23;20089;-78
2023/10/07 04:06:09;;;;;;;33.80;24.40;;;;;;;13.46;100.00;102074.84;6214933;23;20066;-79
2023/10/07 04:08:34;;;;;;;35.85;23.52;;;;;;;13.47;100.00;102073.94;6215329;23;20054;-76
2023/10/07 04:11:03;;;;;;;33.03;24.08;;;;;;;13.36;100.00;102050.31;6215431;23;20422;-75
2023/10/07 04:13:28;;;;;;;37.58;23.38;;;;;;;13.52;100.00;102070.25;6214931;23;20005;-77
2023/10/07 04:15:54;;;;;;;32.67;23.00;;;;;;;13.51;100.00;102089.34;6215155;23;20015;-77
2023/10/07 04:18:34;;;;;;;35.50;23.98;;;;;;;13.52;100.00;102084.06;6212710;23;20005;-76
2023/10/07 04:21:01;;;;;;;35.13;24.47;;;;;;;13.55;100.00;102093.41;6215102;23;20005;-76
2023/10/07 04:23:26;;;;;;;35.85;24.00;;;;;;;13.38;100.00;102053.69;6215242;23;20004;-76
2023/10/07 04:28:53;;;;;;;32.00;24.00;;;;;;;13.48;100.00;102077.38;6124739;23;20009;-76
2023/10/07 04:31:29;;;;;;;33.67;24.90;;;;;;;13.59;100.00;102097.53;6123205;23;20098;-77
2023/10/07 04:33:54;;;;;;;33.20;24.45;;;;;;;13.60;100.00;102096.63;6098512;23;20033;-76
2023/10/07 04:36:54;;;;;;;33.33;23.83;;;;;;;13.61;100.00;102096.53;6123018;23;20010;-76
2023/10/07 04:39:26;;;;;;;30.75;23.65;;;;;;;13.54;100.00;102082.19;6123281;23;20005;-75
2023/10/07 04:41:57;;;;;;;35.40;24.70;;;;;;;13.46;100.00;102071.41;6123311;23;20010;-77
2023/10/07 04:45:00;;;;;;;33.20;24.52;;;;;;;13.55;100.00;102077.84;6097520;23;20010;-75
2023/10/07 04:47:29;;;;;;;34.58;25.08;;;;;;;13.56;100.00;102084.72;6122661;23;20021;-77
2023/10/07 04:50:15;;;;;;;33.00;24.55;;;;;;;13.68;100.00;102103.06;6097992;23;20026;-77
2023/10/07 04:52:50;;;;;;;34.80;23.52;;;;;;;13.62;100.00;102094.75;6123259;23;20077;-76
2023/10/07 04:55:19;;;;;;;34.42;24.88;;;;;;;13.64;100.00;102101.53;6122875;23;20014;-78
2023/10/07 05:02:59;;;;;;;34.00;24.17;;;;;;;13.77;100.00;102105.13;6125933;23;20096;-77
2023/10/07 05:05:30;;;;;;;34.05;24.30;;;;;;;13.82;100.00;102106.63;6176558;23;20016;-76
2023/10/07 05:11:04;;;;;;;30.42;22.75;;;;;;;13.66;100.00;102073.72;6123157;23;20010;-75
2023/10/07 05:13:32;;;;;;;35.50;23.25;;;;;;;13.85;100.00;102106.44;6122882;23;20106;-76
2023/10/07 05:15:57;;;;;;;34.22;22.55;;;;;;;13.73;100.00;102077.66;6122978;23;20487;-77
2023/10/07 05:18:25;;;;;;;34.42;22.95;;;;;;;13.81;100.00;102097.16;6123037;23;20024;-77
2023/10/07 05:20:51;;;;;;;34.03;22.00;;;;;;;13.79;100.00;102099.84;6123014;23;20141;-78
2023/10/07 05:23:17;;;;;;;29.85;22.23;;;;;;;13.86;100.00;102113.31;6122880;23;20010;-76
2023/10/07 05:25:50;;;;;;;33.17;21.33;;;;;;;13.85;100.00;102111.63;6122993;23;20013;-76
2023/10/07 05:28:22;;;;;;;32.45;21.35;;;;;;;13.85;100.00;102107.28;6122700;23;20051;-76
2023/10/07 05:30:52;;;;;;;30.67;20.73;;;;;;;13.83;100.00;102090.97;6122866;23;20141;-78
2023/10/07 05:33:25;;;;;;;30.38;20.45;;;;;;;13.77;100.00;102080.94;6122802;23;20006;-76
2023/10/07 05:36:14;;;;;;;32.75;20.73;;;;;;;13.81;100.00;102087.63;6122628;23;20010;-76
2023/10/07 05:38:42;;;;;;;28.60;19.35;;;;;;;13.75;100.00;102069.78;6122722;23;20010;-76
2023/10/07 05:41:12;;;;;;;29.77;19.35;;;;;;;13.74;100.00;102073.31;6122956;23;20002;-77
2023/10/07 05:43:39;;;;;;;30.75;20.45;;;;;;;13.69;100.00;102075.34;6122659;23;20010;-76
2023/10/07 05:46:04;;;;;;;29.48;19.48;;;;;;;13.55;100.00;102046.69;6122740;23;20006;-78
2023/10/07 05:48:30;;;;;;;27.42;18.80;;;;;;;13.64;100.00;102070.38;6198850;23;20087;-80
2023/10/07 06:04:00;;;;;;;27.05;17.92;;;;;;;12.79;100.00;101933.28;6213755;22;20028;-76
2023/10/07 06:09:49;;;;;;;24.40;17.27;;;;;;;12.98;100.00;101969.41;6201482;23;20338;-76
2023/10/07 06:19:13;;;;;;;27.83;16.60;;;;;;;14.01;100.00;102128.88;6250382;22;20032;-80
2023/10/07 06:21:56;;;;;;;25.77;15.75;;;;;;;13.93;100.00;102099.06;6168328;22;20095;-82
2023/10/07 06:24:21;;;;;;;22.85;15.30;;;;;;;13.18;100.00;101979.53;6214295;23;20013;-81
2023/10/07 06:27:02;;;;;;;21.05;14.52;;;;;;;13.16;100.00;101970.13;6216612;23;20039;-82
2023/10/07 06:29:32;;;;;;;23.55;15.70;;;;;;;12.87;100.00;101931.09;6216431;23;20522;-82
2023/10/07 06:32:18;;;;;;;22.17;14.60;;;;;;;13.58;100.00;102054.34;6216449;23;20076;-81
2023/10/07 06:37:33;;;;;;;23.08;14.88;;;;;;;13.90;100.00;102117.44;6217822;22;20031;-81
2023/10/07 06:40:44;;;;;;;18.55;13.50;;;;;;;14.15;100.00;102135.03;6216446;23;20070;-80
2023/10/07 06:43:14;;;;;;;23.40;15.18;;;;;;;14.01;100.00;102104.66;6217875;22;20443;-80
2023/10/07 06:45:44;;;;;;;18.25;14.20;;;;;;;13.51;100.00;102024.44;6164170;23;20015;-82
2023/10/07 06:48:21;;;;;;;;;;;;;;;;;;;;;
2023/10/07 06:50:48;;;;;;;24.92;14.32;;;;;;;14.25;100.00;102123.19;6094801;23;20533;-82
2023/10/07 06:53:21;;;;;;;18.02;12.85;;;;;;;14.19;100.00;102110.56;6094866;23;20041;-81
2023/10/07 06:55:51;;;;;;;22.88;13.77;;;;;;;14.32;100.00;102138.34;6094719;23;20089;-79
2023/10/07 06:58:17;;;;;;;20.90;13.00;;;;;;;14.39;100.00;102144.03;6096514;23;20013;-82
2023/10/07 07:00:47;;;;;;;18.67;12.88;;;;;;;14.50;100.00;102144.28;6094726;23;20002;-80
2023/10/07 07:03:18;;;;;;;19.40;13.57;;;;;;;14.54;100.00;102148.34;6094746;23;20014;-80
2023/10/07 07:05:48;;;;;;;18.88;12.80;;;;;;;14.69;100.00;102154.44;6070066;23;20486;-80
2023/10/07 07:08:13;;;;;;;19.73;12.85;;;;;;;14.70;100.00;102140.50;6095122;23;20025;-82
2023/10/07 07:10:40;;;;;;;20.80;13.05;;;;;;;14.77;100.00;102123.63;6095047;23;20006;-81
2023/10/07 07:13:12;;;;;;;20.13;11.85;;;;;;;15.00;100.00;102139.59;6094842;23;20011;-82
2023/10/07 07:15:41;;;;;;;15.00;11.00;;;;;;;15.04;100.00;102152.31;6094137;23;20020;-80
2023/10/07 07:23:22;;;;;;;15.07;10.48;;;;;;;15.12;100.00;102154.44;6225948;23;20062;-81
2023/10/07 07:26:06;;;;;;;17.27;10.43;;;;;;;15.03;100.00;102134.19;6215968;23;20450;-81
2023/10/07 07:28:35;;;;;;;15.13;10.35;;;;;;;15.00;100.00;102127.41;6215859;23;20071;-80
2023/10/07 07:31:00;;;;;;;19.02;10.32;;;;;;;15.05;100.00;102143.59;6215579;23;20051;-82
2023/10/07 07:33:29;;;;;;;17.83;10.73;;;;;;;15.02;100.00;102146.34;6215746;23;20009;-81
2023/10/07 07:35:57;;;;;;;16.10;9.50;;;;;;;15.10;100.00;102161.50;6215899;23;20008;-82
2023/10/07 07:38:29;;;;;;;18.33;9.88;;;;;;;15.09;100.00;102155.47;6215765;23;20028;-77
2023/10/07 07:41:09;;;;;;;21.55;9.77;;;;;;;15.21;100.00;102157.31;6215876;23;20500;-82
2023/10/07 07:43:39;;;;;;;17.50;10.00;;;;;;;15.33;100.00;102144.47;6215374;23;20330;-77
2023/10/07 07:46:26;;;;;;;15.88;9.90;;;;;;;15.69;100.00;102172.63;6215606;23;20030;-76
2023/10/07 07:49:06;;;;;;;18.20;10.07;;;;;;;15.90;100.00;102162.59;6215614;23;20031;-75
2023/10/07 07:51:43;;;;;;;15.93;8.98;;;;;;;15.87;100.00;102150.63;6215484;23;20007;-82
2023/10/07 07:54:09;;;;;;;14.70;8.80;;;;;;;16.09;100.00;102168.31;6188595;23;20096;-76
2023/10/07 07:56:35;;;;;;;17.95;9.20;;;;;;;16.03;100.00;102166.94;6215587;23;20007;-81
2023/10/07 07:59:13;;;;;;;17.13;9.45;;;;;;;15.98;100.00;102176.81;6215342;23;20001;-81
2023/10/07 08:01:39;;;;;;;15.65;9.70;;;;;;;15.86;100.00;102177.63;6190965;23;20007;-80
2023/10/07 08:04:09;;;;;;;17.13;8.80;;;;;;;15.82;100.00;102196.94;6215221;23;20004;-75
2023/10/07 08:06:37;;;;;;;14.90;8.63;;;;;;;15.74;100.00;102200.06;6215233;23;20004;-82
2023/10/07 08:09:03;;;;;;;16.98;8.57;;;;;;;15.73;100.00;102193.19;6215399;23;20078;-84
2023/10/07 08:11:38;;;;;;;16.00;9.20;;;;;;;15.61;100.00;102170.50;6215450;23;20005;-81
2023/10/07 08:14:09;;;;;;;19.42;9.82;;;;;;;15.76;100.00;102200.81;6215251;23;20009;-77
2023/10/07 08:16:46;;;;;;;15.63;9.38;;;;;;;15.66;100.00;102170.22;6215126;23;20461;-77
2023/10/07 08:19:13;;;;;;;17.83;9.05;;;;;;;15.69;100.00;102177.84;6215134;23;20001;-79
2023/10/07 08:21:39;;;;;;;17.08;9.15;;;;;;;15.67;100.00;102170.13;6215849;23;20336;-81
2023/10/07 08:24:06;;;;;;;16.95;9.50;;;;;;;15.87;100.00;102194.91;6215258;23;20377;-82
2023/10/07 08:26:34;;;;;;;17.38;9.90;;;;;;;15.84;100.00;102184.69;6215050;23;20431;-81
2023/10/07 08:29:00;;;;;;;18.63;9.95;;;;;;;15.84;100.00;102186.47;6215086;23;20027;-83
2023/10/07 08:31:38;;;;;;;18.30;9.88;;;;;;;15.78;100.00;102177.25;6214819;23;20432;-81
2023/10/07 08:36:36;;;;;;;19.13;9.80;;;;;;;15.94;100.00;102180.56;6215105;23;20312;-81
2023/10/07 08:39:06;;;;;;;17.70;9.50;;;;;;;15.94;100.00;102177.13;6213836;23;20431;-77
2023/10/07 08:41:32;;;;;;;15.88;9.45;;;;;;;16.00;100.00;102179.31;6215185;23;20383;-78
2023/10/07 08:44:13;;;;;;;18.05;10.05;;;;;;;16.09;100.00;102189.16;6213361;23;20039;-81
2023/10/07 08:46:39;;;;;;;15.43;9.50;;;;;;;16.12;100.00;102188.94;6214913;23;20099;-81
2023/10/07 08:49:13;;;;;;;16.15;9.50;;;;;;;16.20;100.00;102189.28;6215182;23;20001;-79
2023/10/07 08:51:44;;;;;;;14.90;9.25;;;;;;;16.16;100.00;102161.78;6213235;23;20075;-77
2023/10/07 08:54:11;;;;;;;15.20;9.55;;;;;;;16.25;100.00;102158.56;6214650;23;20453;-78
2023/10/07 08:56:40;;;;;;;16.58;9.50;;;;;;;16.33;100.00;102177.16;6215149;23;20011;-83
2023/10/07 08:59:12;;;;;;;14.32;9.55;;;;;;;16.14;100.00;102148.00;6214731;23;20039;-80
2023/10/07 09:01:42;;;;;;;14.27;8.88;;;;;;;16.40;100.00;102187.97;6214765;23;20000;-82
2023/10/07 09:04:08;;;;;;;16.73;10.00;;;;;;;16.39;100.00;102178.50;6214974;23;20005;-82
2023/10/07 09:06:45;;;;;;;15.95;9.27;;;;;;;16.44;100.00;102180.81;6214969;23;20488;-79
2023/10/07 09:09:11;;;;;;;13.48;8.90;;;;;;;16.50;100.00;102191.66;6214795;23;20005;-81
2023/10/07 09:11:40;;;;;;;16.67;9.35;;;;;;;16.55;100.00;102178.31;6215277;23;20005;-77
2023/10/07 09:14:07;;;;;;;16.25;9.63;;;;;;;16.54;100.00;102174.06;6215457;23;20004;-82
2023/10/07 09:16:38;;;;;;;17.40;9.93;;;;;;;16.61;100.00;102173.50;6214940;23;20036;-82
2023/10/07 09:19:10;;;;;;;18.13;9.18;;;;;;;16.64;100.00;102162.91;6214965;23;20062;-77
2023/10/07 09:21:40;;;;;;;17.42;8.70;;;;;;;16.45;100.00;102128.56;6190544;23;20000;-82
2023/10/07 09:24:13;;;;;;;16.02;8.52;;;;;;;16.71;100.00;102160.72;6214822;23;20008;-83
2023/10/07 09:26:49;;;;;;;18.52;9.02;;;;;;;16.78;100.00;102174.19;6213525;23;20013;-74
2023/10/07 09:29:15;;;;;;;15.45;8.60;;;;;;;16.85;100.00;102172.84;6214934;23;20050;-80
2023/10/07 09:31:45;;;;;;;14.13;8.52;;;;;;;16.89;100.00;102171.69;6214876;23;20005;-80
2023/10/07 09:34:24;;;;;;;15.35;8.68;;;;;;;16.97;100.00;102182.44;6214880;23;20028;-81
2023/10/07 09:36:53;;;;;;;16.45;8.82;;;;;;;16.95;100.00;102163.44;6214714;23;20107;-80
2023/10/07 09:39:34;;;;;;;15.88;8.57;;;;;;;17.07;100.00;102172.22;6187166;23;20008;-83
2023/10/07 09:42:04;;;;;;;13.02;7.78;;;;;;;17.12;100.00;102180.56;6215008;23;20068;-84
2023/10/07 09:44:30;;;;;;;15.85;8.82;;;;;;;17.13;100.00;102166.56;6216412;23;20013;-84
2023/10/07 09:47:02;;;;;;;14.40;7.72;;;;;;;17.02;100.00;102138.63;6216827;23;20009;-85
2023/10/07 09:49:30;;;;;;;13.73;8.32;;;;;;;17.33;100.00;102173.03;6216669;23;20047;-84
2023/10/07 09:52:15;;;;;;;15.80;8.10;;;;;;;17.42;100.00;102175.81;6215232;23;20079;-81
2023/10/07 09:55:18;;;;;;;15.35;7.88;;;;;;;17.55;100.00;102172.34;6217312;23;20323;-81
2023/10/07 09:58:00;;;;;;;15.43;7.70;;;;;;;17.66;100.00;102168.00;6217023;23;20004;-80
2023/10/07 10:03:12;;;;;;;13.52;7.30;;;;;;;17.82;100.00;102169.56;6223107;23;20009;-82
2023/10/07 10:06:07;;;;;;;14.60;7.65;;;;;;;17.85;100.00;102171.94;6216442;23;20394;-81
2023/10/07 10:08:44;;;;;;;15.20;7.30;;;;;;;17.81;100.00;102155.66;6216486;23;20388;-79
2023/10/07 10:11:30;;;;;;;14.75;7.55;;;;;;;17.92;100.00;102178.41;6216638;23;20005;-82
2023/10/07 10:14:09;;;;;;;12.07;7.32;;;;;;;17.88;100.00;102164.72;6216468;23;20004;-82
2023/10/07 10:16:44;;;;;;;12.98;7.60;;;;;;;17.85;100.00;102170.16;6216802;23;20079;-82
2023/10/07 10:19:44;;;;;;;18.77;6.75;;;;;;;18.02;100.00;102193.31;6216086;23;20007;-83
2023/10/07 10:22:11;;;;;;;13.32;6.68;;;;;;;18.02;100.00;102182.03;6216446;23;20334;-82
2023/10/07 10:24:44;;;;;;;11.88;6.43;;;;;;;17.92;100.00;102174.00;6216441;23;20426;-83
2023/10/07 10:27:15;;;;;;;13.07;6.93;;;;;;;18.08;100.00;102205.06;6216511;23;20007;-81
2023/10/07 10:30:06;;;;;;;12.75;6.65;;;;;;;17.88;100.00;102163.88;6216610;23;20015;-82
2023/10/07 10:32:36;;;;;;;13.25;7.00;;;;;;;18.19;100.00;102196.44;6216445;23;20004;-80
2023/10/07 10:35:07;;;;;;;10.63;6.53;;;;;;;18.12;100.00;102179.56;6216024;23;20005;-81
2023/10/07 10:37:32;;;;;;;13.23;7.03;;;;;;;18.23;100.00;102187.44;6216138;23;20007;-82
2023/10/07 10:40:14;;;;;;;13.20;6.90;;;;;;;18.17;100.00;102180.03;6216211;23;20005;-79
2023/10/07 10:42:41;;;;;;;13.07;6.30;;;;;;;18.35;100.00;102197.00;6216193;23;20004;-80
2023/10/07 10:45:10;;;;;;;12.15;6.15;;;;;;;18.16;99.80;102157.47;6216157;23;20150;-80
2023/10/07 10:47:39;;;;;;;12.07;6.07;;;;;;;18.34;99.82;102180.47;6188261;23;20043;-77
2023/10/07 10:50:07;;;;;;;13.40;6.70;;;;;;;18.45;99.92;102190.13;6214216;23;20012;-80
2023/10/07 10:52:33;;;;;;;14.88;6.43;;;;;;;18.45;99.63;102186.69;6189552;23;20505;-80
2023/10/07 10:55:00;;;;;;;16.05;6.32;;;;;;;18.50;99.19;102187.19;6215962;23;20004;-82
2023/10/07 10:57:25;;;;;;;11.00;5.88;;;;;;;18.60;100.00;102190.78;6215979;23;20007;-82
2023/10/07 10:59:50;;;;;;;13.95;7.05;;;;;;;18.54;97.43;102167.69;6215936;23;20459;-80
2023/10/07 11:02:20;;;;;;;16.48;6.57;;;;;;;18.64;99.26;102173.88;6216839;23;20327;-81
2023/10/07 11:04:47;;;;;;;12.07;6.28;;;;;;;18.71;98.70;102177.75;6215702;23;20485;-80
2023/10/07 11:07:14;;;;;;;11.57;5.72;;;;;;;18.78;98.54;102178.97;6215645;23;20009;-81
2023/10/07 11:09:41;;;;;;;14.77;6.15;;;;;;;18.80;97.03;102173.59;6215769;23;20004;-80
2023/10/07 11:12:12;;;;;;;11.18;5.93;;;;;;;18.88;97.92;102179.09;6216016;23;20028;-79
2023/10/07 11:14:39;;;;;;;13.82;6.05;;;;;;;18.91;96.34;102192.75;6215912;23;20427;-79
2023/10/07 11:17:05;;;;;;;11.55;5.82;;;;;;;18.76;95.88;102143.38;6215823;23;20079;-79
2023/10/07 11:19:31;;;;;;;11.52;5.95;;;;;;;18.98;97.00;102164.34;6215966;23;20007;-82
2023/10/07 11:21:58;;;;;;;12.88;5.68;;;;;;;19.04;95.95;102156.00;6216273;23;20004;-82
2023/10/07 11:24:30;;;;;;;12.20;5.25;;;;;;;19.13;93.10;102163.13;6215895;23;20008;-80
2023/10/07 11:26:59;;;;;;;12.18;5.38;;;;;;;19.04;91.04;102156.00;6215782;23;20058;-83
2023/10/07 11:29:29;;;;;;;11.18;5.30;;;;;;;19.12;90.50;102153.63;6215506;23;20088;-81
2023/10/07 11:32:13;;;;;;;13.93;5.25;;;;;;;19.13;90.68;102162.31;6215657;23;20008;-83
2023/10/07 11:34:45;;;;;;;12.43;5.68;;;;;;;19.15;90.35;102160.38;6215559;23;20004;-81
2023/10/07 11:37:21;;;;;;;9.25;4.70;;;;;;;19.16;90.07;102157.66;6215405;23;20001;-82
2023/10/07 11:39:48;;;;;;;12.00;5.20;;;;;;;19.24;90.08;102164.91;6215460;23;20005;-75
2023/10/07 11:42:18;;;;;;;10.52;5.18;;;;;;;19.33;91.15;102160.75;6215368;23;20008;-83
2023/10/07 11:44:56;;;;;;;10.30;5.15;;;;;;;19.35;89.79;102164.06;6215199;23;20020;-80
2023/10/07 11:47:23;;;;;;;13.10;5.28;;;;;;;19.37;88.90;102159.53;6215703;23;20082;-81
2023/10/07 11:49:48;;;;;;;12.00;5.05;;;;;;;19.39;89.59;102168.97;6213791;23;20004;-82
2023/10/07 11:52:19;;;;;;;11.80;5.28;;;;;;;19.44;88.78;102164.16;6215505;23;20005;-79
2023/10/07 11:54:45;;;;;;;12.35;5.70;;;;;;;19.36;88.34;102158.69;6214665;23;20143;-79
2023/10/07 11:57:11;;;;;;;10.70;5.10;;;;;;;19.51;88.13;102169.75;6214727;23;20076;-82
2023/10/07 11:59:41;;;;;;;12.13;5.57;;;;;;;19.59;88.11;102169.19;6215663;23;20024;-80
2023/10/07 12:02:11;;;;;;;9.32;4.57;;;;;;;19.60;89.66;102155.97;6215125;23;20005;-79
2023/10/07 12:04:38;;;;;;;10.23;4.28;;;;;;;19.65;88.57;102153.78;6214769;23;20010;-78
2023/10/07 12:07:06;;;;;;;10.43;4.20;;;;;;;19.66;87.52;102152.84;6214759;23;20000;-79
2023/10/07 12:09:32;;;;;;;12.43;4.50;;;;;;;19.87;89.03;102167.81;6214940;23;20001;-82
2023/10/07 12:12:02;;;;;;;12.40;4.85;;;;;;;19.87;87.71;102171.25;6215172;23;20071;-80
2023/10/07 12:14:28;;;;;;;12.80;4.57;;;;;;;19.91;87.66;102169.22;6214940;23;20438;-81
2023/10/07 12:16:55;;;;;;;10.35;4.32;;;;;;;19.89;86.13;102158.03;6215042;23;20008;-77
2023/10/07 12:19:21;;;;;;;10.43;4.53;;;;;;;19.98;86.39;102173.84;6187956;23;20087;-73
2023/10/07 12:21:47;;;;;;;10.88;4.93;;;;;;;19.87;86.55;102154.69;6215118;23;20007;-76